sensor_id;sensor_type;location;lat;lon;timestamp;P1;durP1;ratioP1;P2;durP2;ratioP2
57389;SDS011;43217;52.694;6.214;2023-04-03T00:00:13;2.85;;;1.75;;
57389;SDS011;43217;52.694;6.214;2023-04-03T00:02:39;3.88;;;2.20;;
57389;SDS011;43217;52.694;6.214;2023-04-03T00:05:05;4.28;;;2.22;;
57389;SDS011;43217;52.694;6.214;2023-04-03T00:07:32;3.92;;;1.95;;
57389;SDS011;43217;52.694;6.214;2023-04-03T00:09:57;2.95;;;1.67;;
57389;SDS011;43217;52.694;6.214;2023-04-03T00:12:23;2.97;;;1.63;;
57389;SDS011;43217;52.694;6.214;2023-04-03T00:14:49;2.35;;;1.50;;
57389;SDS011;43217;52.694;6.214;2023-04-03T00:17:14;1.92;;;1.27;;
57389;SDS011;43217;52.694;6.214;2023-04-03T00:19:40;2.15;;;1.40;;
57389;SDS011;43217;52.694;6.214;2023-04-03T00:22:06;2.08;;;1.42;;
57389;SDS011;43217;52.694;6.214;2023-04-03T00:24:31;2.63;;;1.60;;
57389;SDS011;43217;52.694;6.214;2023-04-03T00:26:57;1.50;;;1.40;;
57389;SDS011;43217;52.694;6.214;2023-04-03T00:29:24;1.88;;;1.38;;
57389;SDS011;43217;52.694;6.214;2023-04-03T00:31:49;3.22;;;1.40;;
57389;SDS011;43217;52.694;6.214;2023-04-03T00:34:15;2.83;;;1.48;;
57389;SDS011;43217;52.694;6.214;2023-04-03T00:36:41;2.47;;;1.50;;
57389;SDS011;43217;52.694;6.214;2023-04-03T00:39:06;2.67;;;1.90;;
57389;SDS011;43217;52.694;6.214;2023-04-03T00:41:32;2.85;;;1.70;;
57389;SDS011;43217;52.694;6.214;2023-04-03T00:43:58;3.47;;;1.50;;
57389;SDS011;43217;52.694;6.214;2023-04-03T00:46:23;2.03;;;1.30;;
57389;SDS011;43217;52.694;6.214;2023-04-03T00:48:49;2.53;;;1.30;;
57389;SDS011;43217;52.694;6.214;2023-04-03T00:51:25;3.20;;;1.65;;
57389;SDS011;43217;52.694;6.214;2023-04-03T00:53:54;3.38;;;1.60;;
57389;SDS011;43217;52.694;6.214;2023-04-03T00:56:23;1.55;;;1.33;;
57389;SDS011;43217;52.694;6.214;2023-04-03T00:58:56;2.45;;;1.60;;
57389;SDS011;43217;52.694;6.214;2023-04-03T01:01:26;2.45;;;1.40;;
57389;SDS011;43217;52.694;6.214;2023-04-03T01:03:53;2.35;;;1.50;;
57389;SDS011;43217;52.694;6.214;2023-04-03T01:06:21;3.60;;;1.52;;
57389;SDS011;43217;52.694;6.214;2023-04-03T01:08:51;2.67;;;1.50;;
57389;SDS011;43217;52.694;6.214;2023-04-03T01:11:17;2.80;;;1.65;;
57389;SDS011;43217;52.694;6.214;2023-04-03T01:13:43;2.03;;;1.48;;
57389;SDS011;43217;52.694;6.214;2023-04-03T01:16:09;1.70;;;1.30;;
57389;SDS011;43217;52.694;6.214;2023-04-03T01:18:36;2.92;;;1.50;;
57389;SDS011;43217;52.694;6.214;2023-04-03T01:21:10;2.40;;;1.65;;
57389;SDS011;43217;52.694;6.214;2023-04-03T01:26:49;1.70;;;1.52;;
57389;SDS011;43217;52.694;6.214;2023-04-03T01:29:15;2.95;;;1.33;;
57389;SDS011;43217;52.694;6.214;2023-04-03T01:34:16;3.67;;;1.60;;
57389;SDS011;43217;52.694;6.214;2023-04-03T01:36:42;3.40;;;1.70;;
57389;SDS011;43217;52.694;6.214;2023-04-03T01:39:08;3.50;;;1.67;;
57389;SDS011;43217;52.694;6.214;2023-04-03T01:41:34;3.28;;;1.60;;
57389;SDS011;43217;52.694;6.214;2023-04-03T01:44:00;2.70;;;1.25;;
57389;SDS011;43217;52.694;6.214;2023-04-03T01:46:26;2.97;;;1.70;;
57389;SDS011;43217;52.694;6.214;2023-04-03T01:48:51;4.05;;;1.42;;
57389;SDS011;43217;52.694;6.214;2023-04-03T01:51:17;1.63;;;1.38;;
57389;SDS011;43217;52.694;6.214;2023-04-03T01:53:44;2.03;;;1.60;;
57389;SDS011;43217;52.694;6.214;2023-04-03T01:56:09;3.47;;;1.70;;
57389;SDS011;43217;52.694;6.214;2023-04-03T01:58:35;2.03;;;1.50;;
57389;SDS011;43217;52.694;6.214;2023-04-03T02:01:01;2.50;;;1.70;;
57389;SDS011;43217;52.694;6.214;2023-04-03T02:03:27;2.42;;;1.70;;
57389;SDS011;43217;52.694;6.214;2023-04-03T02:05:53;3.15;;;1.80;;
57389;SDS011;43217;52.694;6.214;2023-04-03T02:08:18;3.17;;;1.40;;
57389;SDS011;43217;52.694;6.214;2023-04-03T02:10:46;5.88;;;1.63;;
57389;SDS011;43217;52.694;6.214;2023-04-03T02:13:13;4.13;;;2.17;;
57389;SDS011;43217;52.694;6.214;2023-04-03T02:15:39;3.00;;;1.70;;
57389;SDS011;43217;52.694;6.214;2023-04-03T02:18:05;3.53;;;2.13;;
57389;SDS011;43217;52.694;6.214;2023-04-03T02:20:32;4.03;;;2.38;;
57389;SDS011;43217;52.694;6.214;2023-04-03T02:22:58;3.22;;;1.60;;
57389;SDS011;43217;52.694;6.214;2023-04-03T02:25:24;2.88;;;1.77;;
57389;SDS011;43217;52.694;6.214;2023-04-03T02:27:50;3.53;;;2.10;;
57389;SDS011;43217;52.694;6.214;2023-04-03T02:30:15;3.15;;;1.83;;
57389;SDS011;43217;52.694;6.214;2023-04-03T02:32:41;5.00;;;2.15;;
57389;SDS011;43217;52.694;6.214;2023-04-03T02:35:07;2.78;;;1.98;;
57389;SDS011;43217;52.694;6.214;2023-04-03T02:37:34;4.30;;;2.13;;
57389;SDS011;43217;52.694;6.214;2023-04-03T02:40:00;4.28;;;1.88;;
57389;SDS011;43217;52.694;6.214;2023-04-03T02:42:26;3.08;;;1.90;;
57389;SDS011;43217;52.694;6.214;2023-04-03T02:44:51;2.72;;;1.70;;
57389;SDS011;43217;52.694;6.214;2023-04-03T02:47:18;4.35;;;2.20;;
57389;SDS011;43217;52.694;6.214;2023-04-03T02:49:44;5.30;;;2.10;;
57389;SDS011;43217;52.694;6.214;2023-04-03T02:52:11;3.70;;;2.25;;
57389;SDS011;43217;52.694;6.214;2023-04-03T02:54:39;6.32;;;2.42;;
57389;SDS011;43217;52.694;6.214;2023-04-03T02:57:05;4.13;;;2.15;;
57389;SDS011;43217;52.694;6.214;2023-04-03T02:59:36;6.43;;;2.65;;
57389;SDS011;43217;52.694;6.214;2023-04-03T03:02:07;3.92;;;2.42;;
57389;SDS011;43217;52.694;6.214;2023-04-03T03:04:33;4.15;;;2.35;;
57389;SDS011;43217;52.694;6.214;2023-04-03T03:06:59;5.10;;;2.20;;
57389;SDS011;43217;52.694;6.214;2023-04-03T03:09:25;4.25;;;2.50;;
57389;SDS011;43217;52.694;6.214;2023-04-03T03:11:51;4.90;;;2.47;;
57389;SDS011;43217;52.694;6.214;2023-04-03T03:14:17;4.18;;;2.47;;
57389;SDS011;43217;52.694;6.214;2023-04-03T03:16:42;3.95;;;2.33;;
57389;SDS011;43217;52.694;6.214;2023-04-03T03:19:08;4.72;;;2.47;;
57389;SDS011;43217;52.694;6.214;2023-04-03T03:21:34;6.65;;;2.70;;
57389;SDS011;43217;52.694;6.214;2023-04-03T03:23:59;5.35;;;2.40;;
57389;SDS011;43217;52.694;6.214;2023-04-03T03:26:26;5.00;;;2.60;;
57389;SDS011;43217;52.694;6.214;2023-04-03T03:28:52;4.07;;;2.58;;
57389;SDS011;43217;52.694;6.214;2023-04-03T03:31:17;6.35;;;2.50;;
57389;SDS011;43217;52.694;6.214;2023-04-03T03:33:43;4.43;;;2.40;;
57389;SDS011;43217;52.694;6.214;2023-04-03T03:36:09;4.35;;;2.40;;
57389;SDS011;43217;52.694;6.214;2023-04-03T03:38:36;5.68;;;2.80;;
57389;SDS011;43217;52.694;6.214;2023-04-03T03:41:01;4.25;;;2.30;;
57389;SDS011;43217;52.694;6.214;2023-04-03T03:43:27;3.28;;;2.20;;
57389;SDS011;43217;52.694;6.214;2023-04-03T03:45:54;5.95;;;2.60;;
57389;SDS011;43217;52.694;6.214;2023-04-03T03:48:20;5.68;;;2.70;;
57389;SDS011;43217;52.694;6.214;2023-04-03T03:50:46;4.68;;;2.53;;
57389;SDS011;43217;52.694;6.214;2023-04-03T03:53:12;3.50;;;2.88;;
57389;SDS011;43217;52.694;6.214;2023-04-03T03:55:38;5.25;;;2.45;;
57389;SDS011;43217;52.694;6.214;2023-04-03T03:58:04;7.13;;;2.85;;
57389;SDS011;43217;52.694;6.214;2023-04-03T04:00:30;4.65;;;3.15;;
57389;SDS011;43217;52.694;6.214;2023-04-03T04:02:56;4.72;;;2.50;;
57389;SDS011;43217;52.694;6.214;2023-04-03T04:05:22;5.70;;;2.45;;
57389;SDS011;43217;52.694;6.214;2023-04-03T04:07:47;5.68;;;2.80;;
57389;SDS011;43217;52.694;6.214;2023-04-03T04:10:13;4.65;;;3.30;;
57389;SDS011;43217;52.694;6.214;2023-04-03T04:12:39;5.47;;;2.85;;
57389;SDS011;43217;52.694;6.214;2023-04-03T04:15:05;5.85;;;2.78;;
57389;SDS011;43217;52.694;6.214;2023-04-03T04:17:31;4.43;;;2.95;;
57389;SDS011;43217;52.694;6.214;2023-04-03T04:19:57;4.88;;;3.80;;
57389;SDS011;43217;52.694;6.214;2023-04-03T04:22:22;8.98;;;3.10;;
57389;SDS011;43217;52.694;6.214;2023-04-03T04:24:53;7.57;;;3.35;;
57389;SDS011;43217;52.694;6.214;2023-04-03T04:27:19;6.15;;;2.90;;
57389;SDS011;43217;52.694;6.214;2023-04-03T04:29:45;5.30;;;3.13;;
57389;SDS011;43217;52.694;6.214;2023-04-03T04:32:11;4.47;;;3.65;;
57389;SDS011;43217;52.694;6.214;2023-04-03T04:34:37;6.28;;;2.78;;
57389;SDS011;43217;52.694;6.214;2023-04-03T04:37:03;4.00;;;3.00;;
57389;SDS011;43217;52.694;6.214;2023-04-03T04:39:28;4.68;;;3.30;;
57389;SDS011;43217;52.694;6.214;2023-04-03T04:41:54;4.75;;;3.17;;
57389;SDS011;43217;52.694;6.214;2023-04-03T04:44:20;6.20;;;3.03;;
57389;SDS011;43217;52.694;6.214;2023-04-03T04:46:46;6.32;;;3.03;;
57389;SDS011;43217;52.694;6.214;2023-04-03T04:49:11;6.28;;;2.80;;
57389;SDS011;43217;52.694;6.214;2023-04-03T04:51:37;5.93;;;3.42;;
57389;SDS011;43217;52.694;6.214;2023-04-03T04:54:03;5.43;;;3.00;;
57389;SDS011;43217;52.694;6.214;2023-04-03T04:56:28;6.47;;;3.33;;
57389;SDS011;43217;52.694;6.214;2023-04-03T04:58:54;6.03;;;2.90;;
57389;SDS011;43217;52.694;6.214;2023-04-03T05:01:20;5.28;;;2.30;;
57389;SDS011;43217;52.694;6.214;2023-04-03T05:03:46;5.18;;;2.90;;
57389;SDS011;43217;52.694;6.214;2023-04-03T05:06:12;4.25;;;2.67;;
57389;SDS011;43217;52.694;6.214;2023-04-03T05:08:38;6.03;;;2.80;;
57389;SDS011;43217;52.694;6.214;2023-04-03T05:11:03;6.20;;;3.47;;
57389;SDS011;43217;52.694;6.214;2023-04-03T05:13:29;5.10;;;3.05;;
57389;SDS011;43217;52.694;6.214;2023-04-03T05:15:55;4.70;;;3.10;;
57389;SDS011;43217;52.694;6.214;2023-04-03T05:18:20;5.30;;;3.35;;
57389;SDS011;43217;52.694;6.214;2023-04-03T05:20:48;5.72;;;3.33;;
57389;SDS011;43217;52.694;6.214;2023-04-03T05:23:15;5.32;;;2.85;;
57389;SDS011;43217;52.694;6.214;2023-04-03T05:25:41;5.22;;;2.67;;
57389;SDS011;43217;52.694;6.214;2023-04-03T05:28:08;5.75;;;3.00;;
57389;SDS011;43217;52.694;6.214;2023-04-03T05:30:34;5.10;;;2.95;;
57389;SDS011;43217;52.694;6.214;2023-04-03T05:33:00;4.43;;;2.90;;
57389;SDS011;43217;52.694;6.214;2023-04-03T05:35:26;6.13;;;3.30;;
57389;SDS011;43217;52.694;6.214;2023-04-03T05:37:51;5.40;;;2.90;;
57389;SDS011;43217;52.694;6.214;2023-04-03T05:40:17;4.30;;;2.95;;
57389;SDS011;43217;52.694;6.214;2023-04-03T05:42:43;6.45;;;3.00;;
57389;SDS011;43217;52.694;6.214;2023-04-03T05:45:09;5.95;;;3.13;;
57389;SDS011;43217;52.694;6.214;2023-04-03T05:47:35;6.03;;;3.50;;
57389;SDS011;43217;52.694;6.214;2023-04-03T05:50:01;4.47;;;3.10;;
57389;SDS011;43217;52.694;6.214;2023-04-03T05:52:30;5.68;;;3.03;;
57389;SDS011;43217;52.694;6.214;2023-04-03T05:55:01;5.63;;;2.80;;
57389;SDS011;43217;52.694;6.214;2023-04-03T05:57:27;5.75;;;3.10;;
57389;SDS011;43217;52.694;6.214;2023-04-03T05:59:53;4.00;;;2.72;;
57389;SDS011;43217;52.694;6.214;2023-04-03T06:02:19;5.30;;;2.60;;
57389;SDS011;43217;52.694;6.214;2023-04-03T06:07:23;4.63;;;2.38;;
57389;SDS011;43217;52.694;6.214;2023-04-03T06:09:53;4.88;;;2.58;;
57389;SDS011;43217;52.694;6.214;2023-04-03T06:12:20;4.90;;;2.75;;
57389;SDS011;43217;52.694;6.214;2023-04-03T06:14:46;3.53;;;2.40;;
57389;SDS011;43217;52.694;6.214;2023-04-03T06:17:13;6.40;;;2.50;;
57389;SDS011;43217;52.694;6.214;2023-04-03T06:19:40;3.90;;;2.50;;
57389;SDS011;43217;52.694;6.214;2023-04-03T06:22:05;4.13;;;2.10;;
57389;SDS011;43217;52.694;6.214;2023-04-03T06:24:31;3.55;;;2.17;;
57389;SDS011;43217;52.694;6.214;2023-04-03T06:26:57;3.55;;;2.20;;
57389;SDS011;43217;52.694;6.214;2023-04-03T06:29:23;4.93;;;2.17;;
57389;SDS011;43217;52.694;6.214;2023-04-03T06:31:50;3.67;;;2.10;;
57389;SDS011;43217;52.694;6.214;2023-04-03T06:34:16;4.05;;;2.33;;
57389;SDS011;43217;52.694;6.214;2023-04-03T06:36:43;5.30;;;2.40;;
57389;SDS011;43217;52.694;6.214;2023-04-03T06:39:13;3.15;;;1.60;;
57389;SDS011;43217;52.694;6.214;2023-04-03T06:41:41;4.18;;;2.40;;
57389;SDS011;43217;52.694;6.214;2023-04-03T06:44:06;4.68;;;2.03;;
57389;SDS011;43217;52.694;6.214;2023-04-03T06:46:36;6.53;;;2.38;;
57389;SDS011;43217;52.694;6.214;2023-04-03T06:49:02;5.65;;;2.30;;
57389;SDS011;43217;52.694;6.214;2023-04-03T06:51:29;4.55;;;2.08;;
57389;SDS011;43217;52.694;6.214;2023-04-03T06:53:56;4.82;;;2.58;;
57389;SDS011;43217;52.694;6.214;2023-04-03T06:56:23;3.13;;;1.85;;
57389;SDS011;43217;52.694;6.214;2023-04-03T06:58:50;4.95;;;1.80;;
57389;SDS011;43217;52.694;6.214;2023-04-03T07:01:17;5.13;;;2.40;;
57389;SDS011;43217;52.694;6.214;2023-04-03T07:03:45;4.00;;;2.03;;
57389;SDS011;43217;52.694;6.214;2023-04-03T07:06:13;3.65;;;2.00;;
57389;SDS011;43217;52.694;6.214;2023-04-03T07:08:40;4.33;;;2.10;;
57389;SDS011;43217;52.694;6.214;2023-04-03T07:11:07;5.03;;;2.20;;
57389;SDS011;43217;52.694;6.214;2023-04-03T07:13:33;2.03;;;1.60;;
57389;SDS011;43217;52.694;6.214;2023-04-03T07:16:00;4.85;;;2.00;;
57389;SDS011;43217;52.694;6.214;2023-04-03T07:18:26;3.03;;;1.70;;
57389;SDS011;43217;52.694;6.214;2023-04-03T07:20:51;5.38;;;2.00;;
57389;SDS011;43217;52.694;6.214;2023-04-03T07:23:19;4.95;;;1.98;;
57389;SDS011;43217;52.694;6.214;2023-04-03T07:25:46;2.80;;;1.58;;
57389;SDS011;43217;52.694;6.214;2023-04-03T07:28:14;3.78;;;1.70;;
57389;SDS011;43217;52.694;6.214;2023-04-03T07:30:52;3.15;;;1.73;;
57389;SDS011;43217;52.694;6.214;2023-04-03T07:33:20;3.58;;;1.88;;
57389;SDS011;43217;52.694;6.214;2023-04-03T07:35:47;3.38;;;1.80;;
57389;SDS011;43217;52.694;6.214;2023-04-03T07:38:13;3.15;;;1.65;;
57389;SDS011;43217;52.694;6.214;2023-04-03T07:40:40;2.50;;;1.40;;
57389;SDS011;43217;52.694;6.214;2023-04-03T07:43:11;3.22;;;1.92;;
57389;SDS011;43217;52.694;6.214;2023-04-03T07:45:37;4.38;;;1.80;;
57389;SDS011;43217;52.694;6.214;2023-04-03T07:48:03;3.60;;;1.48;;
57389;SDS011;43217;52.694;6.214;2023-04-03T07:50:28;2.63;;;1.35;;
57389;SDS011;43217;52.694;6.214;2023-04-03T07:52:56;2.58;;;1.45;;
57389;SDS011;43217;52.694;6.214;2023-04-03T07:55:22;4.72;;;1.70;;
57389;SDS011;43217;52.694;6.214;2023-04-03T07:57:48;2.95;;;1.40;;
57389;SDS011;43217;52.694;6.214;2023-04-03T08:00:14;3.40;;;1.60;;
57389;SDS011;43217;52.694;6.214;2023-04-03T08:02:42;1.80;;;1.23;;
57389;SDS011;43217;52.694;6.214;2023-04-03T08:05:09;3.67;;;1.60;;
57389;SDS011;43217;52.694;6.214;2023-04-03T08:07:36;3.85;;;1.60;;
57389;SDS011;43217;52.694;6.214;2023-04-03T08:10:03;2.20;;;1.20;;
57389;SDS011;43217;52.694;6.214;2023-04-03T08:12:29;3.47;;;1.55;;
57389;SDS011;43217;52.694;6.214;2023-04-03T08:14:55;3.58;;;1.40;;
57389;SDS011;43217;52.694;6.214;2023-04-03T08:17:21;2.50;;;1.45;;
57389;SDS011;43217;52.694;6.214;2023-04-03T08:19:47;3.50;;;1.45;;
57389;SDS011;43217;52.694;6.214;2023-04-03T08:22:12;3.60;;;1.40;;
57389;SDS011;43217;52.694;6.214;2023-04-03T08:24:38;2.92;;;1.40;;
57389;SDS011;43217;52.694;6.214;2023-04-03T08:27:03;3.55;;;1.98;;
57389;SDS011;43217;52.694;6.214;2023-04-03T08:29:29;1.73;;;1.27;;
57389;SDS011;43217;52.694;6.214;2023-04-03T08:31:55;4.25;;;1.40;;
57389;SDS011;43217;52.694;6.214;2023-04-03T08:34:20;4.47;;;1.40;;
57389;SDS011;43217;52.694;6.214;2023-04-03T08:36:46;2.10;;;1.40;;
57389;SDS011;43217;52.694;6.214;2023-04-03T08:39:12;2.22;;;1.33;;
57389;SDS011;43217;52.694;6.214;2023-04-03T08:41:39;3.42;;;1.35;;
57389;SDS011;43217;52.694;6.214;2023-04-03T08:44:31;2.42;;;1.30;;
57389;SDS011;43217;52.694;6.214;2023-04-03T08:47:28;3.25;;;1.48;;
57389;SDS011;43217;52.694;6.214;2023-04-03T08:50:07;2.45;;;0.88;;
57389;SDS011;43217;52.694;6.214;2023-04-03T08:52:50;4.35;;;1.30;;
57389;SDS011;43217;52.694;6.214;2023-04-03T08:55:38;2.33;;;1.10;;
57389;SDS011;43217;52.694;6.214;2023-04-03T08:58:50;4.07;;;1.13;;
57389;SDS011;43217;52.694;6.214;2023-04-03T09:01:00;2.45;;;1.45;;
57389;SDS011;43217;52.694;6.214;2023-04-03T09:03:32;2.85;;;1.17;;
57389;SDS011;43217;52.694;6.214;2023-04-03T09:06:11;2.78;;;0.93;;
57389;SDS011;43217;52.694;6.214;2023-04-03T09:16:28;1.77;;;0.88;;
57389;SDS011;43217;52.694;6.214;2023-04-03T09:19:23;2.78;;;1.00;;
57389;SDS011;43217;52.694;6.214;2023-04-03T09:21:56;1.90;;;1.00;;
57389;SDS011;43217;52.694;6.214;2023-04-03T09:24:28;1.85;;;0.95;;
57389;SDS011;43217;52.694;6.214;2023-04-03T09:29:22;2.85;;;1.17;;
57389;SDS011;43217;52.694;6.214;2023-04-03T09:31:50;1.98;;;1.20;;
57389;SDS011;43217;52.694;6.214;2023-04-03T09:34:25;2.05;;;1.00;;
57389;SDS011;43217;52.694;6.214;2023-04-03T09:36:54;3.35;;;1.17;;
57389;SDS011;43217;52.694;6.214;2023-04-03T09:39:26;2.47;;;1.00;;
57389;SDS011;43217;52.694;6.214;2023-04-03T09:44:36;1.98;;;0.90;;
57389;SDS011;43217;52.694;6.214;2023-04-03T09:49:49;2.05;;;0.80;;
57389;SDS011;43217;52.694;6.214;2023-04-03T09:52:19;2.70;;;0.90;;
57389;SDS011;43217;52.694;6.214;2023-04-03T09:54:49;1.88;;;1.00;;
57389;SDS011;43217;52.694;6.214;2023-04-03T09:57:16;1.77;;;0.90;;
57389;SDS011;43217;52.694;6.214;2023-04-03T09:59:46;1.33;;;0.93;;
57389;SDS011;43217;52.694;6.214;2023-04-03T10:02:44;1.40;;;1.10;;
57389;SDS011;43217;52.694;6.214;2023-04-03T10:10:39;1.02;;;0.52;;
57389;SDS011;43217;52.694;6.214;2023-04-03T10:13:09;0.90;;;0.80;;
57389;SDS011;43217;52.694;6.214;2023-04-03T10:15:39;1.83;;;0.80;;
57389;SDS011;43217;52.694;6.214;2023-04-03T10:21:16;2.47;;;0.75;;
57389;SDS011;43217;52.694;6.214;2023-04-03T10:29:32;1.27;;;0.80;;
57389;SDS011;43217;52.694;6.214;2023-04-03T10:40:52;1.42;;;0.60;;
57389;SDS011;43217;52.694;6.214;2023-04-03T10:43:27;2.70;;;1.05;;
57389;SDS011;43217;52.694;6.214;2023-04-03T10:48:40;1.20;;;0.80;;
57389;SDS011;43217;52.694;6.214;2023-04-03T10:51:27;3.97;;;2.17;;
57389;SDS011;43217;52.694;6.214;2023-04-03T10:54:11;3.42;;;0.85;;
57389;SDS011;43217;52.694;6.214;2023-04-03T10:56:42;1.38;;;0.88;;
57389;SDS011;43217;52.694;6.214;2023-04-03T10:59:15;2.25;;;1.10;;
57389;SDS011;43217;52.694;6.214;2023-04-03T11:01:48;1.38;;;0.80;;
57389;SDS011;43217;52.694;6.214;2023-04-03T11:04:18;0.70;;;0.65;;
57389;SDS011;43217;52.694;6.214;2023-04-03T11:06:48;1.92;;;0.73;;
57389;SDS011;43217;52.694;6.214;2023-04-03T11:11:51;1.75;;;0.90;;
57389;SDS011;43217;52.694;6.214;2023-04-03T11:14:30;1.95;;;0.80;;
57389;SDS011;43217;52.694;6.214;2023-04-03T11:20:00;2.00;;;0.90;;
57389;SDS011;43217;52.694;6.214;2023-04-03T11:30:33;2.95;;;1.00;;
57389;SDS011;43217;52.694;6.214;2023-04-03T11:35:47;1.77;;;1.20;;
57389;SDS011;43217;52.694;6.214;2023-04-03T11:38:19;2.83;;;1.00;;
57389;SDS011;43217;52.694;6.214;2023-04-03T11:40:51;1.33;;;0.80;;
57389;SDS011;43217;52.694;6.214;2023-04-03T11:43:22;1.67;;;1.00;;
57389;SDS011;43217;52.694;6.214;2023-04-03T11:50:59;2.22;;;0.90;;
57389;SDS011;43217;52.694;6.214;2023-04-03T11:53:45;2.03;;;0.90;;
57389;SDS011;43217;52.694;6.214;2023-04-03T12:01:43;2.35;;;1.25;;
57389;SDS011;43217;52.694;6.214;2023-04-03T12:04:12;1.40;;;0.90;;
57389;SDS011;43217;52.694;6.214;2023-04-03T12:11:56;2.45;;;0.90;;
57389;SDS011;43217;52.694;6.214;2023-04-03T12:14:24;1.77;;;0.85;;
57389;SDS011;43217;52.694;6.214;2023-04-03T12:16:51;0.85;;;0.85;;
57389;SDS011;43217;52.694;6.214;2023-04-03T12:22:11;2.88;;;1.05;;
57389;SDS011;43217;52.694;6.214;2023-04-03T12:24:46;1.65;;;1.00;;
57389;SDS011;43217;52.694;6.214;2023-04-03T12:29:52;2.28;;;1.00;;
57389;SDS011;43217;52.694;6.214;2023-04-03T12:46:17;2.55;;;1.17;;
57389;SDS011;43217;52.694;6.214;2023-04-03T12:51:13;1.77;;;1.10;;
57389;SDS011;43217;52.694;6.214;2023-04-03T12:53:40;1.88;;;1.00;;
57389;SDS011;43217;52.694;6.214;2023-04-03T12:58:55;1.88;;;1.08;;
57389;SDS011;43217;52.694;6.214;2023-04-03T13:01:37;2.47;;;1.23;;
57389;SDS011;43217;52.694;6.214;2023-04-03T13:04:03;1.90;;;1.10;;
57389;SDS011;43217;52.694;6.214;2023-04-03T13:06:42;1.58;;;1.20;;
57389;SDS011;43217;52.694;6.214;2023-04-03T13:09:22;2.05;;;1.10;;
57389;SDS011;43217;52.694;6.214;2023-04-03T13:11:48;2.80;;;1.70;;
57389;SDS011;43217;52.694;6.214;2023-04-03T13:14:19;1.85;;;1.00;;
57389;SDS011;43217;52.694;6.214;2023-04-03T13:16:57;2.97;;;1.10;;
57389;SDS011;43217;52.694;6.214;2023-04-03T13:19:35;2.45;;;1.20;;
57389;SDS011;43217;52.694;6.214;2023-04-03T13:22:02;1.95;;;1.00;;
57389;SDS011;43217;52.694;6.214;2023-04-03T13:24:34;1.92;;;1.10;;
57389;SDS011;43217;52.694;6.214;2023-04-03T13:27:02;3.05;;;1.20;;
57389;SDS011;43217;52.694;6.214;2023-04-03T13:29:32;2.03;;;1.25;;
57389;SDS011;43217;52.694;6.214;2023-04-03T13:32:01;3.28;;;1.40;;
57389;SDS011;43217;52.694;6.214;2023-04-03T13:34:35;1.80;;;1.08;;
57389;SDS011;43217;52.694;6.214;2023-04-03T13:42:31;2.13;;;1.30;;
57389;SDS011;43217;52.694;6.214;2023-04-03T13:50:56;2.75;;;1.55;;
57389;SDS011;43217;52.694;6.214;2023-04-03T13:53:31;2.90;;;1.25;;
57389;SDS011;43217;52.694;6.214;2023-04-03T13:58:29;3.25;;;1.50;;
57389;SDS011;43217;52.694;6.214;2023-04-03T14:03:46;2.55;;;1.45;;
57389;SDS011;43217;52.694;6.214;2023-04-03T14:06:19;2.45;;;1.20;;
57389;SDS011;43217;52.694;6.214;2023-04-03T14:08:45;2.53;;;1.38;;
57389;SDS011;43217;52.694;6.214;2023-04-03T14:11:20;2.78;;;1.30;;
57389;SDS011;43217;52.694;6.214;2023-04-03T14:13:56;3.03;;;1.30;;
57389;SDS011;43217;52.694;6.214;2023-04-03T14:16:26;1.42;;;0.90;;
57389;SDS011;43217;52.694;6.214;2023-04-03T14:18:54;1.98;;;1.30;;
57389;SDS011;43217;52.694;6.214;2023-04-03T14:21:20;1.73;;;1.13;;
57389;SDS011;43217;52.694;6.214;2023-04-03T14:23:46;2.65;;;1.42;;
57389;SDS011;43217;52.694;6.214;2023-04-03T14:26:14;1.58;;;1.30;;
57389;SDS011;43217;52.694;6.214;2023-04-03T14:28:46;2.75;;;1.30;;
57389;SDS011;43217;52.694;6.214;2023-04-03T14:31:13;2.63;;;1.48;;
57389;SDS011;43217;52.694;6.214;2023-04-03T14:33:41;2.67;;;1.40;;
57389;SDS011;43217;52.694;6.214;2023-04-03T14:36:13;2.53;;;1.40;;
57389;SDS011;43217;52.694;6.214;2023-04-03T14:38:39;2.58;;;1.48;;
57389;SDS011;43217;52.694;6.214;2023-04-03T14:41:06;1.95;;;1.40;;
57389;SDS011;43217;52.694;6.214;2023-04-03T14:43:31;3.05;;;1.45;;
57389;SDS011;43217;52.694;6.214;2023-04-03T14:45:57;1.55;;;1.40;;
57389;SDS011;43217;52.694;6.214;2023-04-03T14:48:24;2.38;;;1.40;;
57389;SDS011;43217;52.694;6.214;2023-04-03T14:50:52;2.75;;;1.42;;
57389;SDS011;43217;52.694;6.214;2023-04-03T14:53:19;1.92;;;1.63;;
57389;SDS011;43217;52.694;6.214;2023-04-03T14:55:50;2.33;;;1.38;;
57389;SDS011;43217;52.694;6.214;2023-04-03T14:58:17;2.20;;;1.45;;
57389;SDS011;43217;52.694;6.214;2023-04-03T15:00:45;2.78;;;1.50;;
57389;SDS011;43217;52.694;6.214;2023-04-03T15:03:13;3.00;;;1.58;;
57389;SDS011;43217;52.694;6.214;2023-04-03T15:05:43;1.88;;;1.40;;
57389;SDS011;43217;52.694;6.214;2023-04-03T15:08:21;2.17;;;1.80;;
57389;SDS011;43217;52.694;6.214;2023-04-03T15:10:51;2.58;;;1.70;;
57389;SDS011;43217;52.694;6.214;2023-04-03T15:13:18;2.17;;;1.40;;
57389;SDS011;43217;52.694;6.214;2023-04-03T15:15:44;3.03;;;1.75;;
57389;SDS011;43217;52.694;6.214;2023-04-03T15:18:17;2.83;;;1.58;;
57389;SDS011;43217;52.694;6.214;2023-04-03T15:20:45;2.20;;;1.70;;
57389;SDS011;43217;52.694;6.214;2023-04-03T15:23:12;3.13;;;1.70;;
57389;SDS011;43217;52.694;6.214;2023-04-03T15:25:40;2.42;;;1.58;;
57389;SDS011;43217;52.694;6.214;2023-04-03T15:28:08;3.58;;;1.42;;
57389;SDS011;43217;52.694;6.214;2023-04-03T15:30:47;3.28;;;1.60;;
57389;SDS011;43217;52.694;6.214;2023-04-03T15:33:13;1.70;;;1.50;;
57389;SDS011;43217;52.694;6.214;2023-04-03T15:35:40;3.67;;;2.40;;
57389;SDS011;43217;52.694;6.214;2023-04-03T15:38:06;2.38;;;1.48;;
57389;SDS011;43217;52.694;6.214;2023-04-03T15:40:32;2.45;;;1.50;;
57389;SDS011;43217;52.694;6.214;2023-04-03T15:42:58;2.28;;;1.52;;
57389;SDS011;43217;52.694;6.214;2023-04-03T15:45:24;3.53;;;1.50;;
57389;SDS011;43217;52.694;6.214;2023-04-03T15:47:50;1.95;;;1.60;;
57389;SDS011;43217;52.694;6.214;2023-04-03T15:50:15;1.95;;;1.85;;
57389;SDS011;43217;52.694;6.214;2023-04-03T15:52:41;2.60;;;1.50;;
57389;SDS011;43217;52.694;6.214;2023-04-03T15:55:07;3.67;;;1.70;;
57389;SDS011;43217;52.694;6.214;2023-04-03T15:57:33;2.55;;;1.70;;
57389;SDS011;43217;52.694;6.214;2023-04-03T15:59:59;2.80;;;1.38;;
57389;SDS011;43217;52.694;6.214;2023-04-03T16:02:25;2.10;;;1.70;;
57389;SDS011;43217;52.694;6.214;2023-04-03T16:04:53;3.03;;;2.05;;
57389;SDS011;43217;52.694;6.214;2023-04-03T16:07:20;4.57;;;1.80;;
57389;SDS011;43217;52.694;6.214;2023-04-03T16:09:46;2.40;;;1.67;;
57389;SDS011;43217;52.694;6.214;2023-04-03T16:12:12;4.50;;;2.10;;
57389;SDS011;43217;52.694;6.214;2023-04-03T16:14:37;2.10;;;1.73;;
57389;SDS011;43217;52.694;6.214;2023-04-03T16:17:03;2.63;;;1.55;;
57389;SDS011;43217;52.694;6.214;2023-04-03T16:19:29;1.98;;;1.50;;
57389;SDS011;43217;52.694;6.214;2023-04-03T16:21:55;2.15;;;1.95;;
57389;SDS011;43217;52.694;6.214;2023-04-03T16:24:21;2.92;;;1.77;;
57389;SDS011;43217;52.694;6.214;2023-04-03T16:26:47;3.50;;;1.75;;
57389;SDS011;43217;52.694;6.214;2023-04-03T16:29:13;4.03;;;1.63;;
57389;SDS011;43217;52.694;6.214;2023-04-03T16:31:39;3.78;;;1.63;;
57389;SDS011;43217;52.694;6.214;2023-04-03T16:34:04;2.90;;;1.60;;
57389;SDS011;43217;52.694;6.214;2023-04-03T16:36:30;2.20;;;1.63;;
57389;SDS011;43217;52.694;6.214;2023-04-03T16:38:56;2.20;;;1.50;;
57389;SDS011;43217;52.694;6.214;2023-04-03T16:41:21;3.33;;;1.73;;
57389;SDS011;43217;52.694;6.214;2023-04-03T16:43:47;2.58;;;1.77;;
57389;SDS011;43217;52.694;6.214;2023-04-03T16:46:13;2.17;;;1.60;;
57389;SDS011;43217;52.694;6.214;2023-04-03T16:48:38;2.85;;;1.50;;
57389;SDS011;43217;52.694;6.214;2023-04-03T16:51:04;3.28;;;2.05;;
57389;SDS011;43217;52.694;6.214;2023-04-03T16:53:30;3.65;;;2.22;;
57389;SDS011;43217;52.694;6.214;2023-04-03T16:55:57;2.65;;;1.80;;